Agios Nikolas — SVAV5 — position and weather

sailwx.info

Track history (hours):
 
Tides and Currents Weather Stations Pressure Air Temp Water Temp Dewpoint Dewpoint Depression Visibility Wind Speed Wind Dir Waves Ship Positions

Agios Nikolas

Last reported at 2015-May-16 03:33 UTC. Time now 2015-May-26 15:51 UTC.
Position N 02°00' E 102°12'.
Warning: this ship's position is 10 days out of date.

Length 225 m; draft 12.6 m.

Type: Cargo ship. MMSI: 240963000.

Date/timePositionNaut miles runAvg speedWind from/ knotsBaromVisibWave heightAir tempDewpointWater temp
2015-May-16 03:33N 02°00' E 102°12'1414.0
2015-May-16 02:33N 01°53' E 102°24'1313.4
2015-May-16 01:33N 01°48' E 102°36'7812.9
2015-May-15 19:33N 01°09' E 103°44'1111.3
2015-May-15 18:33N 01°13' E 103°54'7 6.7
2015-May-15 17:33N 01°17' E 103°60'0 0.0
2015-May-15 16:30N 01°17' E 103°60'0 0.0
2015-May-15 15:30N 01°17' E 103°60'0 0.1
2015-May-15 12:18N 01°17' E 103°59'0 0.1
2015-May-15 11:30N 01°17' E 103°59'0 0.0
2015-May-15 09:12N 01°17' E 103°59'0 0.2
2015-May-15 08:30N 01°17' E 103°59'0 0.2
2015-May-15 07:30N 01°17' E 103°60'0 0.1
2015-May-15 06:33N 01°17' E 103°60'0 0.0
2015-May-15 05:33N 01°17' E 103°60'0 0.1
2015-May-15 04:33N 01°17' E 103°60'0 0.1
2015-May-15 03:24N 01°17' E 103°60'0 0.1
2015-May-15 02:27N 01°17' E 103°59'2 2.3
2015-May-15 01:33N 01°16' E 104°01'6 5.5
2015-May-15 00:33N 01°17' E 104°07'8 7.4
2015-May-14 23:29N 01°18' E 104°14'  
Track history (hours):
 
Tides and Currents Weather Stations Pressure Air Temp Water Temp Dewpoint Dewpoint Depression Visibility Wind Speed Wind Dir Waves Ship Positions

Agios Nikolas

Last reported at 2015-May-16 03:33 UTC. Time now 2015-May-26 15:51 UTC.
Position N 02°00' E 102°12'.
Warning: this ship's position is 10 days out of date.

Length 225 m; draft 12.6 m.

Type: Cargo ship. MMSI: 240963000.

Date/timePositionNaut miles runAvg speedWind from/ knotsBaromVisibWave heightAir tempDewpointWater temp
2015-May-16 03:33N 02°00' E 102°12'1414.0
2015-May-16 02:33N 01°53' E 102°24'1313.4
2015-May-16 01:33N 01°48' E 102°36'7812.9
2015-May-15 19:33N 01°09' E 103°44'1111.3
2015-May-15 18:33N 01°13' E 103°54'7 6.7
2015-May-15 17:33N 01°17' E 103°60'0 0.0
2015-May-15 16:30N 01°17' E 103°60'0 0.0
2015-May-15 15:30N 01°17' E 103°60'0 0.1
2015-May-15 12:18N 01°17' E 103°59'0 0.1
2015-May-15 11:30N 01°17' E 103°59'0 0.0
2015-May-15 09:12N 01°17' E 103°59'0 0.2
2015-May-15 08:30N 01°17' E 103°59'0 0.2
2015-May-15 07:30N 01°17' E 103°60'0 0.1
2015-May-15 06:33N 01°17' E 103°60'0 0.0
2015-May-15 05:33N 01°17' E 103°60'0 0.1
2015-May-15 04:33N 01°17' E 103°60'0 0.1
2015-May-15 03:24N 01°17' E 103°60'0 0.1
2015-May-15 02:27N 01°17' E 103°59'2 2.3
2015-May-15 01:33N 01°16' E 104°01'6 5.5
2015-May-15 00:33N 01°17' E 104°07'8 7.4
2015-May-14 23:29N 01°18' E 104°14'  

Dump ship's entire track history